Time;durP1;ratioP1;P1;durP2;ratioP2;P2;SDS_P1;SDS_P2;PMS_P1;PMS_P2;Temp;Humidity;BMP_temperature;BMP_pressure;BME280_temperature;BME280_humidity;BME280_pressure;Samples;Min_cycle;Max_cycle;Signal;HPM_P1;HPM_P2
2022/01/27 00:00:32;;;;;;;2.85;0.70;;;;;;;;;;1884335;76;26225;-49
2022/01/27 00:07:59;;;;;;;0.40;0.40;;;;;;;;;;1860248;76;26800;-46
2022/01/27 00:13:00;;;;;;;0.45;0.45;;;;;;;;;;1879400;75;26394;-45
2022/01/27 00:15:32;;;;;;;0.42;0.42;;;;;;;;;;1880034;75;26363;-48
2022/01/27 00:18:01;;;;;;;0.35;0.35;;;;;;;;;;1886321;76;26309;-45
2022/01/27 00:20:26;;;;;;;0.47;0.47;;;;;;;;;;1876745;76;26323;-49
2022/01/27 00:22:53;;;;;;;0.40;0.40;;;;;;;;;;1887949;75;26342;-47
2022/01/27 00:25:21;;;;;;;0.42;0.42;;;;;;;;;;1892972;75;26202;-48
2022/01/27 00:27:48;;;;;;;0.20;0.20;;;;;;;;;;1874092;76;26261;-46
2022/01/27 00:30:16;;;;;;;0.37;0.37;;;;;;;;;;1860884;76;26291;-52
2022/01/27 00:32:43;;;;;;;0.42;0.42;;;;;;;;;;1876595;76;26378;-59
2022/01/27 00:35:11;;;;;;;0.30;0.30;;;;;;;;;;1878355;76;26272;-52
2022/01/27 00:37:38;;;;;;;0.40;0.40;;;;;;;;;;1882513;75;26273;-47
2022/01/27 00:40:08;;;;;;;0.55;0.55;;;;;;;;;;1869105;76;26257;-47
2022/01/27 00:42:35;;;;;;;0.33;0.33;;;;;;;;;;1893248;75;26249;-45
2022/01/27 00:45:03;;;;;;;0.35;0.35;;;;;;;;;;1887017;75;27206;-48
2022/01/27 00:47:30;;;;;;;0.30;0.30;;;;;;;;;;1867323;76;26335;-50
2022/01/27 00:49:57;;;;;;;0.50;0.50;;;;;;;;;;1871172;74;26273;-51
2022/01/27 00:52:33;;;;;;;0.50;0.50;;;;;;;;;;1868483;76;25393;-59
2022/01/27 00:54:54;;;;;;;0.40;0.40;;;;;;;;;;1877861;76;26335;-48
2022/01/27 01:00:00;;;;;;;0.40;0.40;;;;;;;;;;1845681;76;26306;-56
2022/01/27 01:06:00;;;;;;;0.40;0.40;;;;;;;;;;1880029;75;26433;-49
2022/01/27 01:07:32;;;;;;;0.40;0.40;;;;;;;;;;1857183;76;26733;-45
2022/01/27 01:15:33;;;;;;;0.40;0.40;;;;;;;;;;1852773;75;26330;-47
2022/01/27 01:21:00;;;;;;;0.30;0.30;;;;;;;;;;1804713;79;26409;-59
2022/01/27 01:31:44;;;;;;;0.53;0.53;;;;;;;;;;1870682;76;26278;-58
2022/01/27 01:34:19;;;;;;;0.40;0.40;;;;;;;;;;1870311;76;26759;-52
2022/01/27 01:36:56;;;;;;;0.30;0.30;;;;;;;;;;1858724;76;26585;-53
2022/01/27 01:39:24;;;;;;;0.33;0.33;;;;;;;;;;1861766;76;26383;-52
2022/01/27 01:41:51;;;;;;;0.85;0.37;;;;;;;;;;1875899;76;26326;-55
2022/01/27 01:44:19;;;;;;;0.90;0.40;;;;;;;;;;1867544;75;26326;-51
2022/01/27 01:46:47;;;;;;;0.30;0.30;;;;;;;;;;1862046;76;26682;-52
2022/01/27 01:49:15;;;;;;;0.33;0.30;;;;;;;;;;1865397;76;26253;-52
2022/01/27 01:51:44;;;;;;;0.30;0.30;;;;;;;;;;1851476;75;26261;-52
2022/01/27 01:54:12;;;;;;;0.33;0.33;;;;;;;;;;1871898;76;26638;-53
2022/01/27 01:56:40;;;;;;;0.42;0.42;;;;;;;;;;1879411;76;26843;-62
2022/01/27 01:59:08;;;;;;;0.40;0.40;;;;;;;;;;1870640;76;26257;-47
2022/01/27 02:01:36;;;;;;;0.47;0.47;;;;;;;;;;1862836;76;26729;-47
2022/01/27 02:04:07;;;;;;;0.20;0.20;;;;;;;;;;1878118;76;26307;-48
2022/01/27 02:06:39;;;;;;;0.33;0.33;;;;;;;;;;1862991;75;27121;-46
2022/01/27 02:09:31;;;;;;;0.40;0.40;;;;;;;;;;1884923;75;26278;-46
2022/01/27 02:20:08;;;;;;;0.40;0.40;;;;;;;;;;1853039;75;26325;-51
2022/01/27 02:22:36;;;;;;;0.37;0.37;;;;;;;;;;1857465;76;26260;-51
2022/01/27 02:25:04;;;;;;;0.40;0.40;;;;;;;;;;1879095;76;26237;-50
2022/01/27 02:27:31;;;;;;;0.25;0.20;;;;;;;;;;1880829;75;26340;-45
2022/01/27 02:29:58;;;;;;;0.50;0.50;;;;;;;;;;1854592;75;26303;-48
2022/01/27 02:32:25;;;;;;;0.42;0.37;;;;;;;;;;1861437;76;26257;-48
2022/01/27 02:34:53;;;;;;;0.53;0.53;;;;;;;;;;1860559;76;26331;-52
2022/01/27 02:37:20;;;;;;;0.42;0.42;;;;;;;;;;1879125;76;26268;-49
2022/01/27 02:39:47;;;;;;;0.72;0.50;;;;;;;;;;1886501;75;25341;-53
2022/01/27 02:42:34;;;;;;;0.40;0.40;;;;;;;;;;1872124;75;26281;-52
2022/01/27 02:45:04;;;;;;;0.40;0.40;;;;;;;;;;1870952;74;26377;-52
2022/01/27 02:47:32;;;;;;;0.60;0.60;;;;;;;;;;1888938;76;26656;-45
2022/01/27 02:50:00;;;;;;;0.40;0.40;;;;;;;;;;1880316;75;26271;-50
2022/01/27 02:52:27;;;;;;;0.40;0.40;;;;;;;;;;1877802;76;27316;-51
2022/01/27 02:54:54;;;;;;;0.40;0.40;;;;;;;;;;1888247;76;26296;-46
2022/01/27 02:57:22;;;;;;;0.62;0.40;;;;;;;;;;1887923;75;26277;-53
2022/01/27 02:59:50;;;;;;;0.40;0.40;;;;;;;;;;1876854;76;26256;-49
2022/01/27 03:02:17;;;;;;;0.40;0.40;;;;;;;;;;1876154;76;26216;-50
2022/01/27 03:04:45;;;;;;;0.47;0.47;;;;;;;;;;1887899;76;26323;-57
2022/01/27 03:07:12;;;;;;;0.70;0.33;;;;;;;;;;1886158;74;26277;-55
2022/01/27 03:09:40;;;;;;;0.93;0.45;;;;;;;;;;1870225;75;26265;-52
2022/01/27 03:12:10;;;;;;;0.50;0.50;;;;;;;;;;1877477;75;26266;-51
2022/01/27 03:14:38;;;;;;;0.20;0.20;;;;;;;;;;1888350;75;26264;-53
2022/01/27 03:17:07;;;;;;;0.40;0.40;;;;;;;;;;1888036;76;26270;-47
2022/01/27 03:19:35;;;;;;;0.42;0.42;;;;;;;;;;1859026;76;26286;-50
2022/01/27 03:22:03;;;;;;;0.62;0.50;;;;;;;;;;1873141;75;26257;-45
2022/01/27 03:24:31;;;;;;;0.50;0.50;;;;;;;;;;1884772;76;26603;-48
2022/01/27 03:26:59;;;;;;;0.62;0.50;;;;;;;;;;1881936;75;26766;-52
2022/01/27 03:29:26;;;;;;;0.40;0.40;;;;;;;;;;1868421;75;26660;-57
2022/01/27 03:31:54;;;;;;;0.50;0.50;;;;;;;;;;1874379;75;26280;-57
2022/01/27 03:34:22;;;;;;;0.40;0.40;;;;;;;;;;1871932;75;26663;-49
2022/01/27 03:36:50;;;;;;;0.37;0.37;;;;;;;;;;1891983;75;26352;-48
2022/01/27 03:39:20;;;;;;;0.50;0.50;;;;;;;;;;1871811;76;26279;-50
2022/01/27 03:41:54;;;;;;;0.50;0.50;;;;;;;;;;1862894;76;26338;-53
2022/01/27 03:44:22;;;;;;;0.33;0.33;;;;;;;;;;1880849;76;26269;-50
2022/01/27 03:46:50;;;;;;;0.78;0.72;;;;;;;;;;1871332;76;26795;-50
2022/01/27 03:49:17;;;;;;;0.62;0.60;;;;;;;;;;1878693;75;26345;-52
2022/01/27 03:51:48;;;;;;;0.40;0.40;;;;;;;;;;1871886;76;26731;-52
2022/01/27 03:54:16;;;;;;;0.37;0.37;;;;;;;;;;1873670;76;26351;-52
2022/01/27 03:56:43;;;;;;;0.85;0.50;;;;;;;;;;1874378;76;26343;-57
2022/01/27 03:59:11;;;;;;;0.50;0.50;;;;;;;;;;1874725;76;26269;-45
2022/01/27 04:01:39;;;;;;;0.42;0.42;;;;;;;;;;1870922;75;26350;-52
2022/01/27 04:04:07;;;;;;;1.02;0.70;;;;;;;;;;1871453;75;26565;-50
2022/01/27 04:06:41;;;;;;;0.50;0.50;;;;;;;;;;1867762;76;26262;-49
2022/01/27 04:09:04;;;;;;;0.57;0.57;;;;;;;;;;1870298;76;26265;-49
2022/01/27 04:11:32;;;;;;;0.53;0.53;;;;;;;;;;1867799;75;26761;-48
2022/01/27 04:13:59;;;;;;;0.50;0.50;;;;;;;;;;1872966;76;26258;-48
2022/01/27 04:16:27;;;;;;;0.53;0.53;;;;;;;;;;1872330;76;26285;-48
2022/01/27 04:18:54;;;;;;;0.42;0.42;;;;;;;;;;1846182;76;26259;-49
2022/01/27 04:21:21;;;;;;;0.50;0.50;;;;;;;;;;1854187;76;26261;-52
2022/01/27 04:23:50;;;;;;;0.95;0.50;;;;;;;;;;1873655;76;26315;-46
2022/01/27 04:26:22;;;;;;;0.95;0.70;;;;;;;;;;1864541;76;26286;-50
2022/01/27 04:28:49;;;;;;;0.50;0.50;;;;;;;;;;1859255;76;25904;-58
2022/01/27 04:31:15;;;;;;;0.60;0.60;;;;;;;;;;1867355;75;26262;-49
2022/01/27 04:33:43;;;;;;;0.40;0.40;;;;;;;;;;1866017;76;26268;-59
2022/01/27 04:36:19;;;;;;;0.60;0.50;;;;;;;;;;1852454;76;26318;-47
2022/01/27 04:38:47;;;;;;;0.50;0.50;;;;;;;;;;1859408;76;26337;-45
2022/01/27 04:41:16;;;;;;;0.70;0.70;;;;;;;;;;1861003;76;26283;-47
2022/01/27 04:43:45;;;;;;;0.40;0.40;;;;;;;;;;1851418;76;26317;-47
2022/01/27 04:48:52;;;;;;;0.50;0.50;;;;;;;;;;1854021;77;27283;-48
2022/01/27 04:51:19;;;;;;;0.60;0.60;;;;;;;;;;1847311;77;26250;-48
2022/01/27 04:56:20;;;;;;;0.60;0.60;;;;;;;;;;1831396;77;26261;-52
2022/01/27 04:58:52;;;;;;;0.68;0.65;;;;;;;;;;1854772;77;26309;-56
2022/01/27 05:01:19;;;;;;;0.50;0.50;;;;;;;;;;1853503;77;26679;-52
2022/01/27 05:03:59;;;;;;;0.70;0.70;;;;;;;;;;1852158;77;27041;-52
2022/01/27 05:06:18;;;;;;;0.75;0.68;;;;;;;;;;1834978;77;26326;-55
2022/01/27 05:08:45;;;;;;;0.60;0.60;;;;;;;;;;1831199;77;26328;-50
2022/01/27 05:11:23;;;;;;;0.50;0.50;;;;;;;;;;1850682;77;26850;-48
2022/01/27 05:13:55;;;;;;;0.47;0.47;;;;;;;;;;1844292;76;26694;-54
2022/01/27 05:16:16;;;;;;;0.50;0.50;;;;;;;;;;1850533;76;26312;-50
2022/01/27 05:18:44;;;;;;;0.45;0.45;;;;;;;;;;1852837;77;27220;-53
2022/01/27 05:21:11;;;;;;;0.60;0.60;;;;;;;;;;1845144;76;26276;-55
2022/01/27 05:23:38;;;;;;;0.53;0.53;;;;;;;;;;1853733;77;26308;-52
2022/01/27 05:26:06;;;;;;;0.57;0.57;;;;;;;;;;1852933;76;26257;-47
2022/01/27 05:28:33;;;;;;;0.65;0.65;;;;;;;;;;1850722;76;26697;-52
2022/01/27 05:31:01;;;;;;;0.82;0.62;;;;;;;;;;1851608;77;26729;-49
2022/01/27 05:33:28;;;;;;;0.50;0.50;;;;;;;;;;1850661;77;26359;-49
2022/01/27 05:35:56;;;;;;;0.40;0.40;;;;;;;;;;1848078;77;26300;-51
2022/01/27 05:38:23;;;;;;;0.50;0.50;;;;;;;;;;1845941;77;26226;-48
2022/01/27 05:40:50;;;;;;;1.02;0.57;;;;;;;;;;1850230;77;26234;-44
2022/01/27 05:43:18;;;;;;;0.62;0.62;;;;;;;;;;1852835;77;26293;-50
2022/01/27 05:45:45;;;;;;;0.62;0.62;;;;;;;;;;1858423;76;26375;-50
2022/01/27 05:48:12;;;;;;;0.50;0.50;;;;;;;;;;1872268;76;26245;-50
2022/01/27 05:50:40;;;;;;;0.57;0.57;;;;;;;;;;1866835;76;26256;-53
2022/01/27 05:53:07;;;;;;;0.62;0.60;;;;;;;;;;1862711;76;26409;-46
2022/01/27 05:55:34;;;;;;;0.50;0.50;;;;;;;;;;1868101;76;26889;-47
2022/01/27 05:58:01;;;;;;;0.60;0.60;;;;;;;;;;1873803;76;26208;-51
2022/01/27 06:00:29;;;;;;;0.80;0.80;;;;;;;;;;1876014;76;26268;-46
2022/01/27 06:02:56;;;;;;;0.50;0.50;;;;;;;;;;1869160;76;26327;-54
2022/01/27 06:05:23;;;;;;;0.55;0.55;;;;;;;;;;1875339;76;26699;-55
2022/01/27 06:07:51;;;;;;;0.85;0.68;;;;;;;;;;1872994;76;26288;-52
2022/01/27 06:10:18;;;;;;;0.70;0.70;;;;;;;;;;1872878;75;26257;-54
2022/01/27 06:12:47;;;;;;;0.53;0.53;;;;;;;;;;1874482;75;26264;-51
2022/01/27 06:15:14;;;;;;;0.70;0.60;;;;;;;;;;1866472;76;26310;-44
2022/01/27 06:17:41;;;;;;;0.62;0.62;;;;;;;;;;1874659;76;26429;-51
2022/01/27 06:20:09;;;;;;;0.70;0.68;;;;;;;;;;1866645;76;26346;-44
2022/01/27 06:22:36;;;;;;;0.55;0.55;;;;;;;;;;1867689;76;26351;-48
2022/01/27 06:25:04;;;;;;;0.60;0.60;;;;;;;;;;1863165;76;26917;-44
2022/01/27 06:27:32;;;;;;;0.95;0.68;;;;;;;;;;1865596;76;27165;-48
2022/01/27 06:29:59;;;;;;;0.50;0.50;;;;;;;;;;1861276;76;26740;-44
2022/01/27 06:32:26;;;;;;;0.68;0.68;;;;;;;;;;1870822;76;26262;-48
2022/01/27 06:34:54;;;;;;;0.70;0.70;;;;;;;;;;1869362;76;26261;-48
2022/01/27 06:37:21;;;;;;;2.17;0.80;;;;;;;;;;1872300;76;26325;-51
2022/01/27 06:39:49;;;;;;;1.95;0.75;;;;;;;;;;1854405;76;26258;-49
2022/01/27 06:42:16;;;;;;;0.70;0.70;;;;;;;;;;1857077;76;25669;-55
2022/01/27 06:44:43;;;;;;;1.62;0.80;;;;;;;;;;1870287;76;26809;-50
2022/01/27 06:47:10;;;;;;;2.87;0.85;;;;;;;;;;1876780;76;26745;-45
2022/01/27 06:49:38;;;;;;;2.50;0.70;;;;;;;;;;1876210;76;26237;-51
2022/01/27 06:52:06;;;;;;;1.87;1.00;;;;;;;;;;1888657;75;26249;-49
2022/01/27 06:54:33;;;;;;;1.57;0.75;;;;;;;;;;1877669;76;26342;-47
2022/01/27 06:57:02;;;;;;;2.10;0.80;;;;;;;;;;1888545;75;26284;-46
2022/01/27 06:59:30;;;;;;;4.03;0.90;;;;;;;;;;1881788;76;26555;-57
2022/01/27 07:01:57;;;;;;;11.43;1.37;;;;;;;;;;1870690;76;25752;-51
2022/01/27 07:04:24;;;;;;;1.67;0.62;;;;;;;;;;1887505;75;26343;-48
2022/01/27 07:06:52;;;;;;;2.02;1.00;;;;;;;;;;1875790;75;26229;-45
2022/01/27 07:09:20;;;;;;;1.02;0.95;;;;;;;;;;1870052;75;26269;-51
2022/01/27 07:11:47;;;;;;;0.88;0.88;;;;;;;;;;1872806;76;26245;-49
2022/01/27 07:14:15;;;;;;;2.67;1.25;;;;;;;;;;1872177;76;26306;-48
2022/01/27 07:16:43;;;;;;;0.80;0.70;;;;;;;;;;1873951;76;26242;-42
2022/01/27 07:19:11;;;;;;;1.35;0.78;;;;;;;;;;1876986;76;25599;-47
2022/01/27 07:21:38;;;;;;;2.45;1.20;;;;;;;;;;1881965;76;26241;-42
2022/01/27 07:24:06;;;;;;;1.77;1.10;;;;;;;;;;1878011;76;26713;-50
2022/01/27 07:26:33;;;;;;;1.20;0.80;;;;;;;;;;1877084;76;26338;-46
2022/01/27 07:29:01;;;;;;;1.15;0.85;;;;;;;;;;1876410;75;26358;-44
2022/01/27 07:31:28;;;;;;;1.20;1.00;;;;;;;;;;1879585;75;26676;-51
2022/01/27 07:33:55;;;;;;;3.10;0.98;;;;;;;;;;1882494;76;26248;-45
2022/01/27 07:36:23;;;;;;;3.08;1.12;;;;;;;;;;1879939;76;26271;-46
2022/01/27 07:38:50;;;;;;;0.75;0.62;;;;;;;;;;1882731;75;26258;-50
2022/01/27 07:41:18;;;;;;;2.87;0.90;;;;;;;;;;1878034;75;26241;-54
2022/01/27 07:43:46;;;;;;;0.82;0.82;;;;;;;;;;1879810;75;25891;-50
2022/01/27 07:46:13;;;;;;;1.00;0.90;;;;;;;;;;1884037;75;26268;-62
2022/01/27 07:48:41;;;;;;;0.82;0.80;;;;;;;;;;1873182;76;26305;-52
2022/01/27 07:51:09;;;;;;;0.90;0.90;;;;;;;;;;1873654;76;26334;-49
2022/01/27 07:53:37;;;;;;;1.05;0.98;;;;;;;;;;1873841;75;25655;-52
2022/01/27 07:56:05;;;;;;;0.80;0.80;;;;;;;;;;1871491;75;26265;-49
2022/01/27 07:58:38;;;;;;;0.80;0.80;;;;;;;;;;1866737;76;26229;-46
2022/01/27 08:01:02;;;;;;;1.17;1.07;;;;;;;;;;1866301;76;26325;-48
2022/01/27 08:03:29;;;;;;;1.10;1.00;;;;;;;;;;1867385;76;26312;-56
2022/01/27 08:05:56;;;;;;;1.12;0.80;;;;;;;;;;1874559;76;26246;-49
2022/01/27 08:08:23;;;;;;;0.98;0.80;;;;;;;;;;1874237;76;26284;-54
2022/01/27 08:10:51;;;;;;;0.80;0.80;;;;;;;;;;1868913;76;26745;-44
2022/01/27 08:13:18;;;;;;;1.70;0.70;;;;;;;;;;1877728;75;26842;-56
2022/01/27 08:15:46;;;;;;;2.00;1.00;;;;;;;;;;1874184;76;25762;-48
2022/01/27 08:18:13;;;;;;;0.75;0.75;;;;;;;;;;1862936;76;26713;-48
2022/01/27 08:20:40;;;;;;;0.70;0.70;;;;;;;;;;1864766;75;26689;-54
2022/01/27 08:23:08;;;;;;;0.88;0.85;;;;;;;;;;1866964;75;26349;-42
2022/01/27 08:25:35;;;;;;;1.75;0.90;;;;;;;;;;1861723;76;26264;-44
2022/01/27 08:28:06;;;;;;;1.77;0.80;;;;;;;;;;1879180;75;26887;-48
2022/01/27 08:30:40;;;;;;;0.72;0.72;;;;;;;;;;1881707;75;26769;-52
2022/01/27 08:33:05;;;;;;;3.60;0.82;;;;;;;;;;1857106;75;26773;-50
2022/01/27 08:35:29;;;;;;;0.70;0.70;;;;;;;;;;1882669;75;26234;-52
2022/01/27 08:37:57;;;;;;;0.53;0.53;;;;;;;;;;1871634;76;26215;-46
2022/01/27 08:40:25;;;;;;;0.85;0.68;;;;;;;;;;1876873;75;26686;-52
2022/01/27 08:42:52;;;;;;;2.52;0.70;;;;;;;;;;1872640;75;26299;-56
2022/01/27 08:45:21;;;;;;;0.57;0.57;;;;;;;;;;1859813;75;26874;-56
2022/01/27 08:47:50;;;;;;;0.80;0.80;;;;;;;;;;1873444;75;26895;-49
2022/01/27 08:50:20;;;;;;;0.80;0.80;;;;;;;;;;1875435;76;26268;-52
2022/01/27 08:52:47;;;;;;;0.50;0.50;;;;;;;;;;1875183;76;26681;-50
2022/01/27 08:55:16;;;;;;;0.75;0.75;;;;;;;;;;1880500;76;26288;-46
2022/01/27 08:57:44;;;;;;;0.60;0.60;;;;;;;;;;1871435;76;26375;-56
2022/01/27 09:00:12;;;;;;;0.60;0.60;;;;;;;;;;1871564;76;26707;-50
2022/01/27 09:02:40;;;;;;;0.33;0.33;;;;;;;;;;1876795;76;26745;-56
2022/01/27 09:05:07;;;;;;;0.60;0.60;;;;;;;;;;1889581;75;26699;-54
2022/01/27 09:07:36;;;;;;;0.72;0.60;;;;;;;;;;1870606;75;26261;-42
2022/01/27 09:10:04;;;;;;;2.12;0.53;;;;;;;;;;1875761;75;26292;-54
2022/01/27 09:12:32;;;;;;;0.60;0.60;;;;;;;;;;1883667;76;26253;-54
2022/01/27 09:15:01;;;;;;;0.68;0.57;;;;;;;;;;1873301;75;26237;-43
2022/01/27 09:17:30;;;;;;;0.60;0.57;;;;;;;;;;1871070;76;26284;-45
2022/01/27 09:19:57;;;;;;;0.50;0.50;;;;;;;;;;1865543;76;26281;-50
2022/01/27 09:22:25;;;;;;;0.80;0.80;;;;;;;;;;1881346;76;26346;-51
2022/01/27 09:24:58;;;;;;;0.60;0.60;;;;;;;;;;1878157;76;26271;-49
2022/01/27 09:27:25;;;;;;;0.57;0.57;;;;;;;;;;1886916;76;26774;-57
2022/01/27 09:29:53;;;;;;;0.78;0.50;;;;;;;;;;1880280;76;26228;-48
2022/01/27 09:32:20;;;;;;;0.50;0.50;;;;;;;;;;1865088;76;28631;-48
2022/01/27 09:34:48;;;;;;;0.98;0.65;;;;;;;;;;1874134;76;26773;-48
2022/01/27 09:37:15;;;;;;;0.50;0.50;;;;;;;;;;1884150;75;26291;-46
2022/01/27 09:39:43;;;;;;;0.40;0.40;;;;;;;;;;1876255;75;26764;-48
2022/01/27 09:42:13;;;;;;;0.50;0.50;;;;;;;;;;1886378;75;26273;-52
2022/01/27 09:44:42;;;;;;;0.42;0.40;;;;;;;;;;1882490;75;26252;-53
2022/01/27 09:47:12;;;;;;;0.40;0.37;;;;;;;;;;1878853;76;27435;-47
2022/01/27 09:49:48;;;;;;;0.50;0.50;;;;;;;;;;1859054;76;26294;-51
2022/01/27 09:52:10;;;;;;;0.50;0.50;;;;;;;;;;1871446;76;26313;-48
2022/01/27 09:54:38;;;;;;;0.80;0.55;;;;;;;;;;1867015;76;26733;-49
2022/01/27 09:57:05;;;;;;;0.50;0.50;;;;;;;;;;1856972;76;26724;-52
2022/01/27 09:59:33;;;;;;;1.37;0.50;;;;;;;;;;1860756;76;26356;-49
2022/01/27 10:02:02;;;;;;;0.50;0.50;;;;;;;;;;1868300;75;25822;-42
2022/01/27 10:04:45;;;;;;;0.40;0.40;;;;;;;;;;1869786;75;26363;-56
2022/01/27 10:07:15;;;;;;;0.42;0.42;;;;;;;;;;1877230;75;26297;-46
2022/01/27 10:10:01;;;;;;;0.65;0.65;;;;;;;;;;1868986;75;26261;-47
2022/01/27 10:12:32;;;;;;;0.62;0.62;;;;;;;;;;1867057;75;26276;-50
2022/01/27 10:15:03;;;;;;;0.35;0.35;;;;;;;;;;1866660;76;26671;-53
2022/01/27 10:17:34;;;;;;;0.40;0.40;;;;;;;;;;1864992;76;26836;-49
2022/01/27 10:20:00;;;;;;;0.40;0.40;;;;;;;;;;1859444;76;26210;-47
2022/01/27 10:22:27;;;;;;;0.40;0.40;;;;;;;;;;1863391;76;26628;-48
2022/01/27 10:25:03;;;;;;;1.62;0.50;;;;;;;;;;1863956;76;26733;-47
2022/01/27 10:27:45;;;;;;;0.40;0.40;;;;;;;;;;1872101;76;27000;-48
2022/01/27 10:30:36;;;;;;;0.40;0.40;;;;;;;;;;1870906;76;26827;-45
2022/01/27 10:32:46;;;;;;;0.35;0.35;;;;;;;;;;1868839;76;26261;-53
2022/01/27 10:35:15;;;;;;;0.35;0.35;;;;;;;;;;1864103;76;26252;-47
2022/01/27 10:37:56;;;;;;;0.45;0.45;;;;;;;;;;1868744;75;26252;-51
2022/01/27 10:40:31;;;;;;;0.40;0.40;;;;;;;;;;1861257;76;26385;-56
2022/01/27 10:43:06;;;;;;;0.40;0.40;;;;;;;;;;1847976;75;26299;-45
2022/01/27 10:45:33;;;;;;;0.33;0.33;;;;;;;;;;1875751;75;26297;-51
2022/01/27 10:48:14;;;;;;;0.28;0.28;;;;;;;;;;1873808;76;26257;-49
2022/01/27 10:50:51;;;;;;;0.37;0.35;;;;;;;;;;1878320;76;26778;-47
2022/01/27 10:53:18;;;;;;;0.30;0.30;;;;;;;;;;1862531;76;26284;-47
2022/01/27 10:55:45;;;;;;;0.20;0.20;;;;;;;;;;1880437;75;26303;-50
2022/01/27 10:58:26;;;;;;;0.35;0.35;;;;;;;;;;1866462;75;26298;-53
2022/01/27 11:00:58;;;;;;;0.90;0.37;;;;;;;;;;1879835;75;26212;-52
2022/01/27 11:03:27;;;;;;;0.40;0.40;;;;;;;;;;1869689;76;26811;-48
2022/01/27 11:05:56;;;;;;;0.30;0.30;;;;;;;;;;1861949;75;26272;-48
2022/01/27 11:08:26;;;;;;;0.17;0.17;;;;;;;;;;1869101;75;26788;-54
2022/01/27 11:10:53;;;;;;;0.20;0.20;;;;;;;;;;1873067;76;26822;-56
2022/01/27 11:13:22;;;;;;;0.40;0.40;;;;;;;;;;1875998;76;26350;-48
2022/01/27 11:15:50;;;;;;;1.45;0.47;;;;;;;;;;1868472;76;26272;-46
2022/01/27 11:18:20;;;;;;;0.65;0.40;;;;;;;;;;1867857;76;26707;-44
2022/01/27 11:20:58;;;;;;;0.28;0.28;;;;;;;;;;1872690;76;26802;-47
2022/01/27 11:26:06;;;;;;;0.47;0.40;;;;;;;;;;1875273;75;26286;-41
2022/01/27 11:28:34;;;;;;;0.20;0.20;;;;;;;;;;1862668;75;26727;-55
2022/01/27 11:31:11;;;;;;;0.30;0.30;;;;;;;;;;1863731;75;26241;-49
2022/01/27 11:33:39;;;;;;;0.30;0.30;;;;;;;;;;1863507;75;26261;-51
2022/01/27 11:36:08;;;;;;;0.20;0.20;;;;;;;;;;1856400;76;26182;-46
2022/01/27 11:38:36;;;;;;;0.35;0.30;;;;;;;;;;1866206;76;26343;-48
2022/01/27 11:41:03;;;;;;;0.40;0.23;;;;;;;;;;1869938;75;26720;-49
2022/01/27 11:43:39;;;;;;;0.30;0.10;;;;;;;;;;1875934;76;26318;-48
2022/01/27 11:46:01;;;;;;;0.30;0.30;;;;;;;;;;1857350;76;26331;-42
2022/01/27 11:48:29;;;;;;;0.17;0.17;;;;;;;;;;1870146;75;26292;-58
2022/01/27 11:51:01;;;;;;;0.30;0.30;;;;;;;;;;1874010;75;26276;-49
2022/01/27 11:53:36;;;;;;;0.53;0.30;;;;;;;;;;1878295;74;27161;-47
2022/01/27 11:56:05;;;;;;;0.45;0.30;;;;;;;;;;1868137;76;26540;-43
2022/01/27 11:58:37;;;;;;;1.50;0.35;;;;;;;;;;1873046;75;26245;-48
2022/01/27 12:01:06;;;;;;;0.20;0.20;;;;;;;;;;1875030;75;26270;-48
2022/01/27 12:03:34;;;;;;;0.65;0.25;;;;;;;;;;1868473;76;26764;-50
2022/01/27 12:06:15;;;;;;;0.30;0.30;;;;;;;;;;1871608;76;26742;-54
2022/01/27 12:08:43;;;;;;;0.20;0.20;;;;;;;;;;1874036;76;26248;-46
2022/01/27 12:11:12;;;;;;;0.20;0.20;;;;;;;;;;1865525;75;26260;-48
2022/01/27 12:13:47;;;;;;;0.30;0.30;;;;;;;;;;1867225;75;26384;-46
2022/01/27 12:19:01;;;;;;;0.70;0.28;;;;;;;;;;1852659;76;26771;-46
2022/01/27 12:21:30;;;;;;;0.20;0.20;;;;;;;;;;1857525;75;26269;-46
2022/01/27 12:24:28;;;;;;;1.17;0.25;;;;;;;;;;1865882;76;26233;-50
2022/01/27 12:26:59;;;;;;;0.20;0.20;;;;;;;;;;1882123;75;26777;-43
2022/01/27 12:29:36;;;;;;;0.20;0.20;;;;;;;;;;1873260;75;26270;-55
2022/01/27 12:32:06;;;;;;;0.20;0.20;;;;;;;;;;1865743;76;26265;-57
2022/01/27 12:34:34;;;;;;;0.30;0.30;;;;;;;;;;1866257;76;26260;-48
2022/01/27 12:37:06;;;;;;;0.10;0.10;;;;;;;;;;1874606;75;26254;-52
2022/01/27 12:39:35;;;;;;;0.30;0.30;;;;;;;;;;1875774;76;26269;-50
2022/01/27 12:42:03;;;;;;;0.20;0.20;;;;;;;;;;1867094;75;26282;-53
2022/01/27 12:44:31;;;;;;;0.20;0.20;;;;;;;;;;1868066;76;26894;-51
2022/01/27 12:47:10;;;;;;;0.20;0.20;;;;;;;;;;1881427;76;26241;-46
2022/01/27 12:49:40;;;;;;;0.20;0.20;;;;;;;;;;1879221;76;26253;-53
2022/01/27 12:52:10;;;;;;;0.10;0.10;;;;;;;;;;1878820;76;26702;-49
2022/01/27 12:54:38;;;;;;;0.25;0.25;;;;;;;;;;1865679;76;26578;-51
2022/01/27 12:57:07;;;;;;;0.10;0.10;;;;;;;;;;1870868;75;26711;-55
2022/01/27 12:59:36;;;;;;;0.20;0.20;;;;;;;;;;1873543;76;26772;-56
2022/01/27 13:02:04;;;;;;;1.65;0.20;;;;;;;;;;1868400;76;26937;-52
2022/01/27 13:04:32;;;;;;;0.30;0.30;;;;;;;;;;1873777;75;26273;-48
2022/01/27 13:07:00;;;;;;;0.53;0.30;;;;;;;;;;1857730;75;26777;-53
2022/01/27 13:09:29;;;;;;;0.23;0.23;;;;;;;;;;1859745;76;26702;-45
2022/01/27 13:11:59;;;;;;;0.40;0.40;;;;;;;;;;1872649;75;26737;-46
2022/01/27 13:14:28;;;;;;;0.30;0.30;;;;;;;;;;1860297;76;26312;-51
2022/01/27 13:17:00;;;;;;;0.25;0.25;;;;;;;;;;1863132;76;26296;-47
2022/01/27 13:19:40;;;;;;;0.25;0.25;;;;;;;;;;1871357;75;26795;-47
2022/01/27 13:22:09;;;;;;;0.30;0.30;;;;;;;;;;1870157;76;26252;-43
2022/01/27 13:24:46;;;;;;;0.20;0.20;;;;;;;;;;1875630;75;26825;-46
2022/01/27 13:27:13;;;;;;;0.85;0.10;;;;;;;;;;1879220;76;26563;-54
2022/01/27 13:29:42;;;;;;;0.13;0.13;;;;;;;;;;1877695;75;26335;-54
2022/01/27 13:32:10;;;;;;;0.62;0.20;;;;;;;;;;1878027;75;26258;-45
2022/01/27 13:34:47;;;;;;;1.30;0.20;;;;;;;;;;1862360;76;26254;-52
2022/01/27 13:37:16;;;;;;;0.30;0.23;;;;;;;;;;1870773;76;26262;-49
2022/01/27 13:42:19;;;;;;;0.20;0.20;;;;;;;;;;1883780;75;26233;-45
2022/01/27 13:44:53;;;;;;;0.20;0.20;;;;;;;;;;1876391;75;26299;-51
2022/01/27 13:47:28;;;;;;;1.30;0.30;;;;;;;;;;1870519;76;26792;-52
2022/01/27 13:50:12;;;;;;;6.50;0.40;;;;;;;;;;1868806;75;26655;-47
2022/01/27 13:52:47;;;;;;;0.20;0.20;;;;;;;;;;1865699;76;26315;-49
2022/01/27 13:55:16;;;;;;;0.28;0.28;;;;;;;;;;1865683;76;26330;-46
2022/01/27 13:57:53;;;;;;;3.30;0.53;;;;;;;;;;1867466;75;26714;-50
2022/01/27 14:00:21;;;;;;;0.30;0.30;;;;;;;;;;1867665;75;26292;-50
2022/01/27 14:02:52;;;;;;;0.20;0.20;;;;;;;;;;1873128;76;26694;-56
2022/01/27 14:05:19;;;;;;;0.35;0.30;;;;;;;;;;1871032;76;26269;-46
2022/01/27 14:07:51;;;;;;;0.30;0.30;;;;;;;;;;1871797;76;26867;-53
2022/01/27 14:10:23;;;;;;;0.30;0.30;;;;;;;;;;1868170;76;26363;-50
2022/01/27 14:13:03;;;;;;;0.47;0.35;;;;;;;;;;1872338;75;26953;-48
2022/01/27 14:15:31;;;;;;;0.70;0.42;;;;;;;;;;1880305;75;26274;-48
2022/01/27 14:18:03;;;;;;;0.65;0.30;;;;;;;;;;1879801;76;26257;-51
2022/01/27 14:20:31;;;;;;;0.20;0.20;;;;;;;;;;1859905;76;26755;-45
2022/01/27 14:23:03;;;;;;;0.28;0.28;;;;;;;;;;1869087;75;26272;-53
2022/01/27 14:25:39;;;;;;;0.30;0.30;;;;;;;;;;1874954;75;26333;-50
2022/01/27 14:28:11;;;;;;;2.25;0.25;;;;;;;;;;1876531;75;26257;-52
2022/01/27 14:30:37;;;;;;;0.45;0.30;;;;;;;;;;1854195;75;26727;-44
2022/01/27 14:33:04;;;;;;;2.55;0.37;;;;;;;;;;1876873;76;26268;-58
2022/01/27 14:35:32;;;;;;;0.30;0.30;;;;;;;;;;1868393;76;26682;-52
2022/01/27 14:37:59;;;;;;;0.20;0.20;;;;;;;;;;1863088;76;26250;-48
2022/01/27 14:40:26;;;;;;;1.70;0.40;;;;;;;;;;1867596;75;26284;-52
2022/01/27 14:42:58;;;;;;;0.28;0.28;;;;;;;;;;1872221;75;26277;-46
2022/01/27 14:45:23;;;;;;;0.28;0.28;;;;;;;;;;1861766;75;26246;-49
2022/01/27 14:47:52;;;;;;;0.25;0.25;;;;;;;;;;1864155;75;26335;-46
2022/01/27 14:50:19;;;;;;;0.30;0.30;;;;;;;;;;1873748;75;27177;-43
2022/01/27 14:52:46;;;;;;;0.47;0.33;;;;;;;;;;1878534;76;26244;-50
2022/01/27 14:55:15;;;;;;;0.30;0.30;;;;;;;;;;1856415;75;26336;-46
2022/01/27 14:57:43;;;;;;;0.20;0.20;;;;;;;;;;1879354;75;26273;-57
2022/01/27 15:00:12;;;;;;;0.30;0.30;;;;;;;;;;1867224;75;26262;-52
2022/01/27 15:02:39;;;;;;;0.28;0.28;;;;;;;;;;1868859;76;26346;-45
2022/01/27 15:05:08;;;;;;;0.60;0.50;;;;;;;;;;1867003;75;26313;-46
2022/01/27 15:07:37;;;;;;;3.37;0.40;;;;;;;;;;1871073;75;26334;-47
2022/01/27 15:10:07;;;;;;;0.40;0.40;;;;;;;;;;1874135;76;26270;-42
2022/01/27 15:12:34;;;;;;;0.30;0.30;;;;;;;;;;1867135;76;26028;-60
2022/01/27 15:20:34;;;;;;;0.30;0.30;;;;;;;;;;1864879;76;26328;-53
2022/01/27 15:23:02;;;;;;;0.40;0.40;;;;;;;;;;1875170;76;26270;-50
2022/01/27 15:25:30;;;;;;;0.30;0.30;;;;;;;;;;1878548;76;26717;-49
2022/01/27 15:27:57;;;;;;;0.50;0.50;;;;;;;;;;1867876;76;26253;-50
2022/01/27 15:30:25;;;;;;;0.30;0.30;;;;;;;;;;1878544;76;27519;-47
2022/01/27 15:32:53;;;;;;;0.40;0.40;;;;;;;;;;1870919;76;26273;-48
2022/01/27 15:35:20;;;;;;;0.30;0.30;;;;;;;;;;1877246;75;26285;-59
2022/01/27 15:37:48;;;;;;;0.30;0.30;;;;;;;;;;1875926;76;26421;-57
2022/01/27 15:40:17;;;;;;;0.65;0.40;;;;;;;;;;1871101;76;26301;-53
2022/01/27 15:42:46;;;;;;;0.33;0.33;;;;;;;;;;1871151;76;26323;-55
2022/01/27 15:45:15;;;;;;;2.05;0.30;;;;;;;;;;1869794;76;26331;-50
2022/01/27 15:47:42;;;;;;;0.20;0.20;;;;;;;;;;1876525;76;26681;-49
2022/01/27 15:50:11;;;;;;;0.40;0.40;;;;;;;;;;1854052;76;26299;-45